Raven — WDG3535 — position and weather

sailwx.info

Track history (hours):
 
Tides and Currents Weather Stations Pressure Air Temp Water Temp Dewpoint Dewpoint Depression Visibility Wind Speed Wind Dir Waves Ship Positions

Raven

Owner: Chesapeake Marine Tours Inc, Annapolis, MD. More information available from US FCC via Universal Licensing System.

Last reported at 2018-Jul-19 01:16 UTC. Time now 2018-Jul-21 11:41 UTC.
Position N 39°17' W 076°37'.

Type: Passenger vessel. MMSI: 367527050.

Date/timePositionNaut miles runAvg speedWind from/ knotsBaromVisibWave heightAir tempDewpointWater temp
2018-Jul-19 01:16N 39°17' W 076°37'0 0.0
2018-Jul-19 01:00N 39°17' W 076°37'1 2.3
2018-Jul-19 00:30N 39°17' W 076°35'1 2.7
2018-Jul-19 00:00N 39°15' W 076°35'3 6.0
2018-Jul-18 23:31N 39°14' W 076°32'1 2.1
2018-Jul-18 23:00N 39°14' W 076°33'3 6.6
2018-Jul-18 22:30N 39°17' W 076°36'1 1.9
2018-Jul-18 22:00N 39°17' W 076°37'0 0.0
2018-Jul-18 21:31N 39°17' W 076°37'  
2018-Jul-15 23:59N 39°17' W 076°37'0 0.8
2018-Jul-15 23:31N 39°17' W 076°36'2 3.3
2018-Jul-15 23:01N 39°15' W 076°35'2 4.1
2018-Jul-15 22:30N 39°15' W 076°33'3 5.0
2018-Jul-15 22:00N 39°13' W 076°31'0 1.0
2018-Jul-15 21:30N 39°13' W 076°31'2 4.9
2018-Jul-15 21:00N 39°14' W 076°33'3 5.1
2018-Jul-15 20:30N 39°17' W 076°35'1 2.2
2018-Jul-15 20:01N 39°17' W 076°37'0 0.0
2018-Jul-15 19:30N 39°17' W 076°37'0 0.0
2018-Jul-15 19:00N 39°17' W 076°37'0 0.0
2018-Jul-13 19:54N 39°17' W 076°37'0 0.8
2018-Jul-13 19:31N 39°17' W 076°36'0 0.0
2018-Jul-13 19:00N 39°17' W 076°36'1 1.6
2018-Jul-13 18:31N 39°17' W 076°35'1 1.4
2018-Jul-13 18:01N 39°17' W 076°36'0 0.3
2018-Jul-13 17:30N 39°17' W 076°36'0 0.0
2018-Jul-13 17:00N 39°17' W 076°36'0 0.0
2018-Jul-13 16:31N 39°17' W 076°36'0 0.2
2018-Jul-13 16:01N 39°17' W 076°36'2 3.6
2018-Jul-13 15:31N 39°16' W 076°35'2 3.8
2018-Jul-13 15:01N 39°17' W 076°36'0 0.3
2018-Jul-13 14:01N 39°17' W 076°37'0 0.0
2018-Jul-13 13:31N 39°17' W 076°37'0 0.0
2018-Jul-13 01:19N 39°17' W 076°37'0 0.4
2018-Jul-13 01:00N 39°17' W 076°37'1 2.0
2018-Jul-13 00:30N 39°17' W 076°35'2 4.4
2018-Jul-13 00:00N 39°15' W 076°34'1 2.9
2018-Jul-12 23:30N 39°16' W 076°35'2 3.0
2018-Jul-12 23:00N 39°17' W 076°36'0 0.5
2018-Jul-12 22:29N 39°17' W 076°37'0 0.0
2018-Jul-12 22:00N 39°17' W 076°37'  
Track history (hours):
 
Tides and Currents Weather Stations Pressure Air Temp Water Temp Dewpoint Dewpoint Depression Visibility Wind Speed Wind Dir Waves Ship Positions

Raven

Owner: Chesapeake Marine Tours Inc, Annapolis, MD. More information available from US FCC via Universal Licensing System.

Last reported at 2018-Jul-19 01:16 UTC. Time now 2018-Jul-21 11:41 UTC.
Position N 39°17' W 076°37'.

Type: Passenger vessel. MMSI: 367527050.

Date/timePositionNaut miles runAvg speedWind from/ knotsBaromVisibWave heightAir tempDewpointWater temp
2018-Jul-19 01:16N 39°17' W 076°37'0 0.0
2018-Jul-19 01:00N 39°17' W 076°37'1 2.3
2018-Jul-19 00:30N 39°17' W 076°35'1 2.7
2018-Jul-19 00:00N 39°15' W 076°35'3 6.0
2018-Jul-18 23:31N 39°14' W 076°32'1 2.1
2018-Jul-18 23:00N 39°14' W 076°33'3 6.6
2018-Jul-18 22:30N 39°17' W 076°36'1 1.9
2018-Jul-18 22:00N 39°17' W 076°37'0 0.0
2018-Jul-18 21:31N 39°17' W 076°37'  
2018-Jul-15 23:59N 39°17' W 076°37'0 0.8
2018-Jul-15 23:31N 39°17' W 076°36'2 3.3
2018-Jul-15 23:01N 39°15' W 076°35'2 4.1
2018-Jul-15 22:30N 39°15' W 076°33'3 5.0
2018-Jul-15 22:00N 39°13' W 076°31'0 1.0
2018-Jul-15 21:30N 39°13' W 076°31'2 4.9
2018-Jul-15 21:00N 39°14' W 076°33'3 5.1
2018-Jul-15 20:30N 39°17' W 076°35'1 2.2
2018-Jul-15 20:01N 39°17' W 076°37'0 0.0
2018-Jul-15 19:30N 39°17' W 076°37'0 0.0
2018-Jul-15 19:00N 39°17' W 076°37'0 0.0
2018-Jul-13 19:54N 39°17' W 076°37'0 0.8
2018-Jul-13 19:31N 39°17' W 076°36'0 0.0
2018-Jul-13 19:00N 39°17' W 076°36'1 1.6
2018-Jul-13 18:31N 39°17' W 076°35'1 1.4
2018-Jul-13 18:01N 39°17' W 076°36'0 0.3
2018-Jul-13 17:30N 39°17' W 076°36'0 0.0
2018-Jul-13 17:00N 39°17' W 076°36'0 0.0
2018-Jul-13 16:31N 39°17' W 076°36'0 0.2
2018-Jul-13 16:01N 39°17' W 076°36'2 3.6
2018-Jul-13 15:31N 39°16' W 076°35'2 3.8
2018-Jul-13 15:01N 39°17' W 076°36'0 0.3
2018-Jul-13 14:01N 39°17' W 076°37'0 0.0
2018-Jul-13 13:31N 39°17' W 076°37'0 0.0
2018-Jul-13 01:19N 39°17' W 076°37'0 0.4
2018-Jul-13 01:00N 39°17' W 076°37'1 2.0
2018-Jul-13 00:30N 39°17' W 076°35'2 4.4
2018-Jul-13 00:00N 39°15' W 076°34'1 2.9
2018-Jul-12 23:30N 39°16' W 076°35'2 3.0
2018-Jul-12 23:00N 39°17' W 076°36'0 0.5
2018-Jul-12 22:29N 39°17' W 076°37'0 0.0
2018-Jul-12 22:00N 39°17' W 076°37'  

Dump ship's entire track history